Time;durP1;ratioP1;P1;durP2;ratioP2;P2;SDS_P1;SDS_P2;PMS_P1;PMS_P2;Temp;Humidity;BMP_temperature;BMP_pressure;BME280_temperature;BME280_humidity;BME280_pressure;Samples;Min_cycle;Max_cycle;Signal;HPM_P1;HPM_P2
2021/05/31 00:00:15;;;;;;;6.78;2.70;;;;;;;12.34;82.90;100144.58;1663343;85;21478;-80
2021/05/31 00:02:44;;;;;;;8.08;2.40;;;;;;;12.28;83.12;100139.09;1677906;85;22084;-80
2021/05/31 00:05:13;;;;;;;4.72;2.50;;;;;;;12.28;83.93;100140.41;1689678;79;21471;-82
2021/05/31 00:07:40;;;;;;;6.78;2.80;;;;;;;12.26;83.93;100139.65;1708119;82;21011;-82
2021/05/31 00:10:09;;;;;;;4.00;2.65;;;;;;;12.25;83.55;100138.39;1667464;85;21127;-81
2021/05/31 00:12:38;;;;;;;6.53;3.00;;;;;;;12.23;82.94;100139.77;1666260;84;21792;-80
2021/05/31 00:15:08;;;;;;;5.12;2.95;;;;;;;12.18;83.03;100139.11;1649868;86;21063;-81
2021/05/31 00:17:35;;;;;;;12.03;2.77;;;;;;;12.11;82.79;100137.66;1640089;87;21109;-81
2021/05/31 00:20:07;;;;;;;7.97;2.80;;;;;;;12.07;83.31;100136.92;1647863;81;21112;-80
2021/05/31 00:22:34;;;;;;;10.68;2.77;;;;;;;12.01;82.00;100141.61;1725802;82;20995;-82
2021/05/31 00:25:01;;;;;;;5.67;2.72;;;;;;;11.95;84.00;100148.02;1723542;83;21061;-81
2021/05/31 00:27:28;;;;;;;8.43;2.47;;;;;;;11.98;83.99;100153.63;1756864;81;20975;-79
2021/05/31 00:29:55;;;;;;;6.78;2.75;;;;;;;12.06;83.43;100160.30;1756408;81;20936;-81
2021/05/31 00:32:22;;;;;;;6.17;2.52;;;;;;;12.09;84.18;100148.75;1754288;81;21015;-84
2021/05/31 00:34:51;;;;;;;11.18;3.22;;;;;;;12.13;83.68;100154.30;1751059;80;21597;-72
2021/05/31 00:37:17;;;;;;;6.55;2.75;;;;;;;12.13;82.80;100151.66;1619966;86;21073;-78
2021/05/31 00:39:46;;;;;;;8.58;2.92;;;;;;;12.15;82.76;100151.13;1628324;88;20939;-78
2021/05/31 00:42:13;;;;;;;6.28;2.83;;;;;;;12.14;81.83;100154.68;1629355;88;20986;-78
2021/05/31 00:44:40;;;;;;;3.72;2.80;;;;;;;12.11;81.99;100153.50;1629239;88;20935;-76
2021/05/31 00:47:07;;;;;;;8.30;2.60;;;;;;;12.09;82.91;100150.07;1629320;88;21568;-76
2021/05/31 00:49:39;;;;;;;7.42;2.90;;;;;;;12.04;82.06;100149.41;1629164;88;21634;-75
2021/05/31 00:52:06;;;;;;;6.60;2.55;;;;;;;11.99;81.09;100151.40;1685891;79;20920;-74
2021/05/31 00:54:33;;;;;;;7.87;2.65;;;;;;;11.96;82.14;100151.92;1685676;85;21582;-75
2021/05/31 00:57:00;;;;;;;9.78;3.08;;;;;;;11.96;81.82;100155.87;1685880;84;20949;-74
2021/05/31 00:59:27;;;;;;;10.75;2.92;;;;;;;11.96;82.50;100153.24;1685695;85;20996;-73
2021/05/31 01:01:53;;;;;;;12.37;3.30;;;;;;;11.90;81.61;100150.85;1686009;85;21687;-73
2021/05/31 01:04:20;;;;;;;10.95;3.02;;;;;;;11.86;81.99;100148.38;1685648;85;20976;-74
2021/05/31 01:06:58;;;;;;;7.72;3.10;;;;;;;11.78;80.95;100143.86;1680412;79;20955;-78
2021/05/31 01:09:32;;;;;;;10.35;3.30;;;;;;;11.69;81.64;100142.49;1653546;84;21001;-78
2021/05/31 01:12:29;;;;;;;13.90;2.87;;;;;;;11.62;82.42;100138.36;1648407;87;20977;-74
2021/05/31 01:15:10;;;;;;;8.40;2.72;;;;;;;11.63;83.32;100140.95;1648182;87;21024;-74
2021/05/31 01:17:54;;;;;;;13.65;2.85;;;;;;;11.67;83.50;100143.02;1648145;87;21087;-73
2021/05/31 01:20:40;;;;;;;5.20;2.90;;;;;;;11.70;83.58;100144.19;1649350;78;21252;-76
2021/05/31 01:23:11;;;;;;;8.50;2.95;;;;;;;11.72;83.41;100139.72;1671531;84;21791;-75
2021/05/31 01:25:56;;;;;;;15.83;3.58;;;;;;;11.68;82.92;100143.39;1677117;85;21022;-74
2021/05/31 01:28:28;;;;;;;5.22;3.22;;;;;;;11.63;83.30;100129.55;1645522;85;21110;-77
2021/05/31 01:30:56;;;;;;;10.75;3.50;;;;;;;11.54;82.65;100121.08;1676269;83;20966;-75
2021/05/31 01:33:24;;;;;;;6.08;3.10;;;;;;;11.46;82.51;100125.83;1674987;84;21002;-76
2021/05/31 01:35:51;;;;;;;8.55;3.12;;;;;;;11.41;83.31;100129.11;1691905;81;21028;-73
2021/05/31 01:38:18;;;;;;;9.45;2.60;;;;;;;11.40;83.56;100132.66;1750051;81;20928;-74
2021/05/31 01:40:47;;;;;;;13.00;3.05;;;;;;;11.40;84.49;100136.61;1679174;83;21127;-72
2021/05/31 01:43:16;;;;;;;9.58;3.05;;;;;;;11.47;84.56;100133.27;1680076;84;20997;-73
2021/05/31 01:45:43;;;;;;;12.78;3.12;;;;;;;11.51;84.37;100140.14;1717339;82;20886;-73
2021/05/31 01:48:11;;;;;;;6.75;2.75;;;;;;;11.52;83.62;100139.20;1716831;83;20946;-72
2021/05/31 01:50:39;;;;;;;9.13;2.58;;;;;;;11.49;84.05;100141.52;1687132;81;21126;-80
2021/05/31 01:53:05;;;;;;;9.65;2.65;;;;;;;11.53;84.03;100140.47;1614047;87;21040;-80
2021/05/31 01:55:35;;;;;;;9.48;3.30;;;;;;;11.59;85.05;100142.45;1655753;86;21855;-80
2021/05/31 01:58:02;;;;;;;3.40;2.47;;;;;;;11.61;84.96;100148.53;1608026;89;21591;-80
2021/05/31 02:00:29;;;;;;;9.70;2.83;;;;;;;11.69;85.41;100157.00;1655876;86;21011;-80
2021/05/31 02:02:58;;;;;;;12.15;2.98;;;;;;;11.79;86.52;100153.05;1573623;90;21082;-80
2021/05/31 02:05:25;;;;;;;11.40;3.65;;;;;;;11.92;87.39;100156.08;1623448;82;21079;-78
2021/05/31 02:07:52;;;;;;;5.65;3.10;;;;;;;12.03;86.69;100154.28;1603392;88;21057;-78
2021/05/31 02:10:19;;;;;;;7.90;2.90;;;;;;;12.06;85.13;100155.48;1664330;86;21948;-78
2021/05/31 02:12:51;;;;;;;6.85;2.95;;;;;;;12.03;84.75;100159.56;1661541;85;21040;-77
2021/05/31 02:15:43;;;;;;;6.03;2.37;;;;;;;12.04;83.85;100156.02;1653857;86;21028;-78
2021/05/31 02:18:26;;;;;;;8.38;3.35;;;;;;;12.02;84.61;100167.09;1627551;86;21684;-77
2021/05/31 02:20:57;;;;;;;11.90;3.40;;;;;;;11.99;85.19;100169.88;1672486;81;21015;-73
2021/05/31 02:23:23;;;;;;;;;;;;;;;12.05;85.84;100169.59;1714642;82;20928;-75
2021/05/31 02:25:50;;;;;;;6.87;2.08;;;;;;;12.09;84.68;100172.50;1697527;84;20173;-74
2021/05/31 02:28:17;;;;;;;9.03;2.77;;;;;;;12.05;84.20;100168.27;1677081;84;21052;-75
2021/05/31 02:30:46;;;;;;;7.08;3.27;;;;;;;12.04;83.46;100167.42;1697609;83;21208;-74
2021/05/31 02:33:13;;;;;;;10.00;3.10;;;;;;;11.99;83.67;100170.72;1697493;84;21511;-74
2021/05/31 02:35:40;;;;;;;6.97;2.98;;;;;;;12.01;83.98;100168.00;1695686;81;21082;-80
2021/05/31 02:38:07;;;;;;;7.33;2.75;;;;;;;12.03;86.46;100173.64;1663214;85;20997;-79
2021/05/31 02:40:36;;;;;;;6.62;2.98;;;;;;;12.16;85.70;100170.84;1656589;85;21050;-79
2021/05/31 02:43:05;;;;;;;8.28;3.05;;;;;;;12.28;88.00;100172.09;1678615;85;21079;-84
2021/05/31 02:45:33;;;;;;;9.53;2.90;;;;;;;12.45;86.17;100175.81;1685884;85;20992;-80
2021/05/31 02:48:00;;;;;;;10.28;2.90;;;;;;;12.47;85.99;100181.86;1664589;85;21833;-80
2021/05/31 02:50:29;;;;;;;14.38;3.70;;;;;;;12.52;85.06;100182.53;1654888;81;21074;31
2021/05/31 02:52:56;;;;;;;7.42;3.52;;;;;;;12.52;83.78;100189.98;1742101;82;21437;-75
2021/05/31 02:55:24;;;;;;;11.68;4.45;;;;;;;12.47;83.81;100181.86;1742578;80;21101;-76
2021/05/31 02:57:51;;;;;;;9.18;3.30;;;;;;;12.46;83.71;100186.29;1742429;82;20957;-76
2021/05/31 03:00:20;;;;;;;15.85;3.47;;;;;;;12.49;83.80;100182.65;1732852;82;21507;-76
2021/05/31 03:02:48;;;;;;;10.45;3.45;;;;;;;12.49;84.03;100186.61;1742467;82;20949;-77
2021/05/31 03:05:17;;;;;;;5.65;2.62;;;;;;;12.44;83.05;100179.36;1742444;82;21488;-76
2021/05/31 03:07:45;;;;;;;6.78;3.25;;;;;;;12.38;83.91;100182.67;1699649;80;21665;-74
2021/05/31 03:10:13;;;;;;;10.40;3.22;;;;;;;12.43;84.41;100177.66;1697375;84;21031;-75
2021/05/31 03:12:41;;;;;;;8.23;3.40;;;;;;;12.51;84.19;100178.16;1697608;84;21494;-79
2021/05/31 03:15:11;;;;;;;7.50;3.10;;;;;;;12.47;83.36;100181.42;1697323;84;20987;-77
2021/05/31 03:17:38;;;;;;;9.10;3.77;;;;;;;12.48;83.17;100180.95;1698250;84;21573;-77
2021/05/31 03:20:06;;;;;;;13.20;4.30;;;;;;;12.51;84.56;100179.02;1697901;84;21090;-77
2021/05/31 03:22:34;;;;;;;18.20;4.53;;;;;;;12.57;82.94;100172.62;1667271;82;76194;-88
2021/05/31 03:25:01;;;;;;;13.10;4.15;;;;;;;12.67;83.95;100176.55;1682157;85;20999;-87
2021/05/31 03:27:29;;;;;;;6.90;3.70;;;;;;;12.71;83.63;100170.20;1683398;83;20976;-89
2021/05/31 03:29:56;;;;;;;5.58;3.17;;;;;;;12.82;83.05;100174.16;1687582;84;20927;-88
2021/05/31 03:32:23;;;;;;;10.72;3.60;;;;;;;12.92;82.61;100172.80;1684982;84;21060;-90
2021/05/31 03:34:50;;;;;;;9.78;3.40;;;;;;;13.14;83.18;100172.20;1681158;85;21564;-90
2021/05/31 03:37:17;;;;;;;10.20;3.47;;;;;;;13.33;82.42;100175.33;1655519;80;74295;-75
2021/05/31 03:39:45;;;;;;;7.12;3.27;;;;;;;13.49;80.45;100173.66;1624133;87;21058;-75
2021/05/31 03:42:12;;;;;;;6.53;3.40;;;;;;;13.59;77.42;100169.63;1622821;86;21084;-76
2021/05/31 03:44:39;;;;;;;11.50;3.22;;;;;;;13.55;77.32;100176.02;1619148;87;21070;-75
2021/05/31 03:50:11;;;;;;;10.93;3.02;;;;;;;13.57;76.71;100176.81;1699775;79;77098;-81
2021/05/31 03:58:16;;;;;;;9.20;2.80;;;;;;;13.58;75.36;100179.83;1693441;83;21071;-79
2021/05/31 04:00:43;;;;;;;18.42;3.42;;;;;;;13.52;74.32;100176.15;1697118;84;21043;-79
2021/05/31 04:03:12;;;;;;;7.60;2.90;;;;;;;13.39;74.11;100179.02;1733385;82;21032;-86
2021/05/31 04:05:39;;;;;;;10.05;3.37;;;;;;;13.30;75.19;100180.78;1711848;80;21029;-85
2021/05/31 04:13:40;;;;;;;6.60;3.05;;;;;;;13.16;75.52;100169.03;1682489;84;21010;-85
2021/05/31 04:16:07;;;;;;;9.58;3.08;;;;;;;13.21;75.14;100172.30;1685796;85;21492;-84
2021/05/31 04:18:34;;;;;;;6.37;3.00;;;;;;;13.22;74.15;100170.51;1659331;85;21078;-81
2021/05/31 04:21:02;;;;;;;9.03;3.20;;;;;;;13.20;73.36;100174.57;1705987;84;21038;-82
2021/05/31 04:23:28;;;;;;;14.23;3.05;;;;;;;13.14;74.17;100170.88;1707317;83;21088;-83
2021/05/31 04:25:55;;;;;;;5.42;3.20;;;;;;;13.06;73.62;100173.02;1705394;84;21079;-82
2021/05/31 04:28:22;;;;;;;9.30;3.55;;;;;;;12.96;74.21;100170.42;1707566;82;21119;-83
2021/05/31 04:30:49;;;;;;;8.35;3.00;;;;;;;12.92;74.59;100176.77;1748682;82;21059;-80
2021/05/31 04:33:16;;;;;;;4.53;2.90;;;;;;;12.91;75.22;100181.20;1749656;80;20913;-74
2021/05/31 04:35:43;;;;;;;6.87;3.08;;;;;;;12.94;75.61;100181.52;1743908;82;21066;-78
2021/05/31 04:38:09;;;;;;;11.70;3.42;;;;;;;12.88;73.96;100181.79;1741757;82;21015;-74
2021/05/31 04:40:38;;;;;;;8.53;3.52;;;;;;;12.80;73.70;100187.44;1736952;82;21032;-74
2021/05/31 04:43:05;;;;;;;6.30;3.52;;;;;;;12.65;74.51;100182.36;1719714;82;21057;-74
2021/05/31 04:45:32;;;;;;;7.97;3.60;;;;;;;12.54;75.14;100195.22;1743218;80;21533;-73
2021/05/31 04:48:00;;;;;;;6.97;2.85;;;;;;;12.48;75.26;100187.55;1753672;80;20976;-72
2021/05/31 04:50:27;;;;;;;10.48;3.60;;;;;;;12.43;75.28;100196.14;1749531;80;21098;-72
2021/05/31 04:52:54;;;;;;;13.35;3.47;;;;;;;12.35;75.65;100201.74;1750614;80;21003;-74
2021/05/31 04:55:23;;;;;;;7.95;3.33;;;;;;;12.26;75.86;100207.42;1741286;82;21543;-72
2021/05/31 04:57:50;;;;;;;7.60;3.00;;;;;;;12.16;76.34;100209.59;1763414;80;21539;-71
2021/05/31 05:00:18;;;;;;;8.10;3.87;;;;;;;12.14;76.98;100212.77;1740863;80;21123;-72
2021/05/31 05:02:45;;;;;;;9.28;3.92;;;;;;;12.19;76.81;100214.73;1740231;82;21005;-71
2021/05/31 05:05:13;;;;;;;7.47;3.45;;;;;;;12.20;76.14;100212.98;1740375;82;21512;-73
2021/05/31 05:07:47;;;;;;;9.90;3.40;;;;;;;12.15;76.39;100215.81;1734828;82;21051;-71
2021/05/31 05:10:18;;;;;;;6.67;3.60;;;;;;;12.17;77.04;100217.94;1746410;80;20945;-73
2021/05/31 05:12:49;;;;;;;7.80;2.87;;;;;;;12.20;77.09;100212.98;1758309;80;21042;-72
2021/05/31 05:15:17;;;;;;;12.90;3.12;;;;;;;12.17;77.33;100208.69;1767917;81;20992;-74
2021/05/31 05:17:45;;;;;;;8.30;3.45;;;;;;;12.24;78.26;100215.42;1755867;81;21005;-72
2021/05/31 05:20:13;;;;;;;5.85;3.58;;;;;;;12.32;77.89;100212.45;1759535;80;20937;-73
2021/05/31 05:22:40;;;;;;;7.58;3.42;;;;;;;12.39;77.22;100211.25;1769165;81;21000;-72
2021/05/31 05:25:07;;;;;;;10.18;3.58;;;;;;;12.45;77.00;100209.68;1772648;80;21066;-73
2021/05/31 05:27:34;;;;;;;13.40;3.65;;;;;;;12.52;76.35;100214.23;1770155;80;21000;-74
2021/05/31 05:30:04;;;;;;;9.73;3.30;;;;;;;12.60;76.54;100212.09;1756184;80;20947;-73
2021/05/31 05:32:31;;;;;;;4.92;2.75;;;;;;;12.70;76.83;100216.06;1747557;81;20935;-72
2021/05/31 05:35:09;;;;;;;13.30;3.47;;;;;;;12.82;77.19;100209.84;1758801;81;20940;-73
2021/05/31 05:37:30;;;;;;;5.05;2.52;;;;;;;13.09;75.96;100213.87;1753549;81;21062;-74
2021/05/31 05:45:14;;;;;;;5.58;3.20;;;;;;;13.81;70.68;100203.00;1763151;80;21063;-72
2021/05/31 05:49:50;;;;;;;6.12;3.45;;;;;;;14.06;70.41;100215.41;1756058;80;21090;-73
2021/05/31 05:52:18;;;;;;;5.37;2.87;;;;;;;14.16;69.61;100216.27;1761158;81;20996;-73
2021/05/31 05:54:49;;;;;;;10.55;3.67;;;;;;;14.21;68.18;100216.87;1753213;81;21484;-73
2021/05/31 05:57:15;;;;;;;10.65;3.12;;;;;;;14.23;68.29;100211.04;1763595;80;21505;-73
2021/05/31 05:59:43;;;;;;;7.78;3.08;;;;;;;14.19;67.53;100205.50;1740080;80;21072;-73
2021/05/31 06:02:11;;;;;;;9.08;3.40;;;;;;;14.06;67.23;100211.43;1739596;80;21540;-73
2021/05/31 06:04:40;;;;;;;11.15;3.52;;;;;;;13.96;68.59;100211.48;1740696;80;21055;-73
2021/05/31 06:07:07;;;;;;;7.58;3.02;;;;;;;13.94;67.79;100208.08;1752741;80;21521;-74
2021/05/31 06:09:36;;;;;;;8.58;3.33;;;;;;;13.92;67.88;100211.27;1731071;80;21032;-73
2021/05/31 06:12:04;;;;;;;5.05;2.98;;;;;;;13.90;67.99;100210.48;1717161;82;20995;-73
2021/05/31 06:14:31;;;;;;;10.00;3.25;;;;;;;13.93;68.40;100208.14;1741511;80;21064;-72
2021/05/31 06:16:58;;;;;;;14.98;3.55;;;;;;;14.01;68.98;100206.84;1731111;80;21580;-73
2021/05/31 06:19:28;;;;;;;8.58;3.17;;;;;;;14.13;68.66;100213.78;1738600;80;21042;-72
2021/05/31 06:21:56;;;;;;;6.97;2.98;;;;;;;14.16;68.20;100212.29;1736696;80;21588;-73
2021/05/31 06:24:26;;;;;;;8.93;2.85;;;;;;;14.20;66.99;100213.38;1743833;80;21016;-74
2021/05/31 06:26:54;;;;;;;5.08;2.62;;;;;;;14.17;66.84;100213.55;1760354;80;21077;-73
2021/05/31 06:29:21;;;;;;;3.72;2.50;;;;;;;14.17;65.68;100210.90;1733237;80;21016;-73
2021/05/31 06:31:48;;;;;;;7.45;3.00;;;;;;;14.18;65.38;100213.08;1737273;80;20996;-73
2021/05/31 06:34:15;;;;;;;8.05;2.27;;;;;;;14.16;66.38;100208.31;1746502;80;21048;-79
2021/05/31 06:36:42;;;;;;;4.80;2.50;;;;;;;14.26;66.83;100208.23;1744027;80;21517;-79
2021/05/31 06:39:11;;;;;;;7.25;2.50;;;;;;;14.43;66.05;100208.23;1738236;80;21147;-79
2021/05/31 06:41:38;;;;;;;5.20;2.40;;;;;;;14.58;65.58;100208.39;1746689;80;20952;-79
2021/05/31 06:44:05;;;;;;;3.52;2.08;;;;;;;14.77;64.27;100207.83;1736678;80;20964;-78
2021/05/31 06:46:32;;;;;;;2.08;1.75;;;;;;;15.07;63.34;100209.77;1745063;80;20995;-80
2021/05/31 06:49:00;;;;;;;7.58;2.17;;;;;;;15.42;61.86;100212.28;1736584;80;20952;-79
2021/05/31 06:51:27;;;;;;;2.95;1.72;;;;;;;15.66;62.39;100206.89;1738506;80;21684;-78
2021/05/31 06:53:54;;;;;;;10.23;1.82;;;;;;;15.90;59.76;100209.14;1737953;80;21613;-77
2021/05/31 06:56:23;;;;;;;6.30;2.05;;;;;;;15.82;58.34;100211.37;1754795;80;20996;-78
2021/05/31 06:58:51;;;;;;;4.00;1.40;;;;;;;15.58;58.50;100206.48;1746891;80;20897;-78
2021/05/31 07:01:18;;;;;;;4.08;2.02;;;;;;;15.23;59.63;100215.95;1734372;82;21024;-78
2021/05/31 07:03:45;;;;;;;5.45;1.67;;;;;;;14.90;60.29;100214.16;1735779;82;21125;-77
2021/05/31 07:06:13;;;;;;;4.97;1.67;;;;;;;14.59;60.11;100214.95;1733557;82;20996;-78
2021/05/31 07:08:39;;;;;;;2.47;1.40;;;;;;;14.39;61.97;100218.59;1725281;80;21492;-77
2021/05/31 07:11:12;;;;;;;4.85;1.50;;;;;;;14.24;62.42;100214.06;1726140;80;21122;-81
2021/05/31 07:13:37;;;;;;;9.78;1.32;;;;;;;14.18;62.28;100220.55;1751531;79;21582;-85
2021/05/31 07:16:05;;;;;;;7.40;1.70;;;;;;;14.13;62.12;100217.75;1747059;79;21124;-84
2021/05/31 07:18:34;;;;;;;3.87;1.47;;;;;;;14.18;63.14;100221.02;1763894;80;20943;-83
2021/05/31 07:21:01;;;;;;;3.90;1.65;;;;;;;14.24;62.63;100222.02;1771038;80;20905;-85
2021/05/31 07:23:29;;;;;;;4.10;1.30;;;;;;;14.32;62.82;100221.64;1758178;80;20989;-82
2021/05/31 07:25:56;;;;;;;3.65;1.65;;;;;;;14.44;63.17;100228.95;1691701;84;21038;-83
2021/05/31 07:28:23;;;;;;;2.40;1.40;;;;;;;14.53;62.90;100227.63;1728012;79;21093;-76
2021/05/31 07:30:50;;;;;;;2.27;1.45;;;;;;;14.56;61.86;100227.48;1727324;83;20934;-74
2021/05/31 07:33:17;;;;;;;3.95;1.50;;;;;;;14.48;61.22;100232.69;1699846;83;20998;-75
2021/05/31 07:35:45;;;;;;;5.33;1.60;;;;;;;14.38;61.64;100231.46;1762874;80;20961;-75
2021/05/31 07:38:12;;;;;;;3.08;1.30;;;;;;;14.30;62.54;100230.98;1748625;81;21524;-76
2021/05/31 07:40:39;;;;;;;6.30;1.40;;;;;;;14.33;62.60;100237.44;1766210;80;21111;-76
2021/05/31 07:43:06;;;;;;;3.60;1.37;;;;;;;14.36;63.48;100235.98;1676918;80;21123;-72
2021/05/31 07:45:34;;;;;;;2.42;1.17;;;;;;;14.39;61.38;100231.84;1737416;81;21012;-72
2021/05/31 07:48:04;;;;;;;1.67;1.00;;;;;;;14.39;61.68;100237.14;1754200;81;21906;-73
2021/05/31 07:50:31;;;;;;;2.65;1.05;;;;;;;14.44;60.92;100232.45;1734214;81;21392;-73
2021/05/31 07:52:59;;;;;;;5.00;1.62;;;;;;;14.47;60.47;100232.31;1704493;83;21079;-72
2021/05/31 07:55:26;;;;;;;4.22;1.15;;;;;;;14.53;61.05;100233.78;1699856;83;21031;-72
2021/05/31 07:57:54;;;;;;;5.25;1.40;;;;;;;14.59;59.15;100236.63;1678200;80;20960;-74
2021/05/31 08:00:23;;;;;;;6.20;1.30;;;;;;;14.55;58.64;100244.34;1666157;85;21055;-75
2021/05/31 08:02:51;;;;;;;3.65;1.52;;;;;;;14.43;58.57;100247.13;1644266;87;21037;-75
2021/05/31 08:05:18;;;;;;;4.42;1.40;;;;;;;14.28;59.10;100249.59;1636555;87;21810;-73
2021/05/31 08:07:46;;;;;;;2.58;1.00;;;;;;;14.24;59.37;100248.50;1652510;86;21066;-75
2021/05/31 08:10:13;;;;;;;1.15;1.02;;;;;;;14.21;58.85;100251.31;1655627;86;21088;-76
2021/05/31 08:12:42;;;;;;;1.50;1.10;;;;;;;14.22;59.40;100247.75;1675891;82;20989;-75
2021/05/31 08:15:10;;;;;;;1.12;1.02;;;;;;;14.29;58.91;100254.45;1691486;84;21016;-75
2021/05/31 08:17:38;;;;;;;4.78;1.22;;;;;;;14.35;59.25;100254.12;1715113;82;21086;-75
2021/05/31 08:20:06;;;;;;;1.90;1.02;;;;;;;14.37;58.21;100262.84;1759880;79;78307;-92
2021/05/31 08:22:34;;;;;;;4.75;1.17;;;;;;;14.31;58.48;100265.83;1759847;80;21031;-93
2021/05/31 08:25:04;;;;;;;3.72;1.50;;;;;;;14.30;59.44;100260.13;1773343;80;20996;-92
2021/05/31 08:27:33;;;;;;;;;;;;;;;14.32;60.08;100260.05;1754128;79;76169;-75
2021/05/31 08:30:02;;;;;;;3.77;1.30;;;;;;;14.33;60.13;100261.28;1722919;81;21001;-76
2021/05/31 08:32:29;;;;;;;5.87;1.10;;;;;;;14.36;60.73;100261.15;1722654;83;21009;-76
2021/05/31 08:34:57;;;;;;;1.80;1.37;;;;;;;14.39;60.14;100268.92;1722704;83;20949;-75
2021/05/31 08:37:24;;;;;;;3.00;1.55;;;;;;;14.32;61.23;100266.20;1722725;83;21003;-75
2021/05/31 08:39:53;;;;;;;1.98;1.32;;;;;;;14.24;62.03;100261.74;1722908;83;21005;-70
2021/05/31 08:42:21;;;;;;;4.97;1.50;;;;;;;14.21;63.31;100258.78;1673382;79;21080;-72
2021/05/31 08:44:48;;;;;;;3.62;1.77;;;;;;;14.22;63.88;100267.61;1677404;85;21008;-72
2021/05/31 08:47:15;;;;;;;10.95;2.75;;;;;;;14.28;62.95;100264.16;1631129;86;21813;-73
2021/05/31 08:49:42;;;;;;;3.55;1.40;;;;;;;14.44;62.20;100260.75;1674698;85;21029;-74
2021/05/31 08:52:09;;;;;;;2.45;1.10;;;;;;;14.58;60.81;100258.75;1653832;86;21644;-73
2021/05/31 08:54:36;;;;;;;3.05;1.30;;;;;;;14.76;62.34;100253.81;1646914;86;21259;-74
2021/05/31 08:57:03;;;;;;;2.22;1.45;;;;;;;15.10;61.40;100251.55;1663647;81;21417;-82
2021/05/31 08:59:31;;;;;;;7.40;1.50;;;;;;;15.44;58.51;100244.89;1660964;85;21929;-81
2021/05/31 09:02:00;;;;;;;6.33;1.47;;;;;;;15.69;58.33;100242.58;1653367;84;21004;-83
2021/05/31 09:04:28;;;;;;;3.42;1.10;;;;;;;15.90;60.30;100241.01;1692885;83;21073;-79
2021/05/31 09:06:57;;;;;;;1.62;0.90;;;;;;;16.17;57.87;100242.52;1727163;82;21712;-78
2021/05/31 09:09:47;;;;;;;2.17;1.12;;;;;;;16.37;53.75;100244.01;1729505;82;21651;-76
2021/05/31 09:12:23;;;;;;;1.67;1.10;;;;;;;16.39;53.51;100239.46;1710787;79;21589;-72
2021/05/31 09:15:06;;;;;;;1.15;1.02;;;;;;;16.32;53.82;100240.30;1678750;84;20937;-75
2021/05/31 09:17:35;;;;;;;9.08;1.07;;;;;;;16.10;53.64;100244.70;1677058;84;20928;-75
2021/05/31 09:20:04;;;;;;;5.10;1.10;;;;;;;15.74;53.90;100245.00;1671654;84;21110;-76
2021/05/31 09:22:32;;;;;;;2.65;0.93;;;;;;;15.36;55.24;100247.10;1670947;84;20971;-75
2021/05/31 09:25:04;;;;;;;2.40;1.05;;;;;;;15.18;56.96;100252.45;1670208;84;21110;-73
2021/05/31 09:27:31;;;;;;;3.25;1.20;;;;;;;15.06;56.20;100251.33;1686604;81;21046;-80
2021/05/31 09:31:45;;;;;;;3.85;1.20;;;;;;;15.05;57.27;100259.39;1803085;79;22485;-83
2021/05/31 09:34:13;;;;;;;5.47;1.30;;;;;;;15.04;56.15;100253.68;1756125;81;20965;-80
2021/05/31 09:37:01;;;;;;;2.10;1.25;;;;;;;15.09;56.24;100256.94;1757012;81;21131;-82
2021/05/31 09:39:37;;;;;;;3.22;0.93;;;;;;;15.19;55.23;100264.80;1768501;80;21112;-83
2021/05/31 09:42:12;;;;;;;3.95;1.00;;;;;;;15.54;56.41;100252.72;1744032;80;21130;-75
2021/05/31 09:44:41;;;;;;;1.95;1.10;;;;;;;15.89;54.19;100254.73;1702525;83;21047;-75
2021/05/31 09:47:08;;;;;;;4.08;1.40;;;;;;;16.10;54.06;100256.66;1698117;82;21058;-73
2021/05/31 09:49:36;;;;;;;3.98;1.20;;;;;;;16.27;55.23;100250.83;1699133;83;21155;-76
2021/05/31 09:52:08;;;;;;;7.25;1.40;;;;;;;16.35;52.39;100254.72;1707073;83;21215;-75
2021/05/31 09:54:40;;;;;;;6.55;1.60;;;;;;;16.25;52.46;100254.05;1700527;82;21667;-78
2021/05/31 09:57:27;;;;;;;7.42;0.93;;;;;;;16.10;54.70;100257.10;1695924;79;21177;-83
2021/05/31 10:00:15;;;;;;;2.05;1.02;;;;;;;15.97;53.13;100263.61;1668100;84;21728;-83
2021/05/31 10:03:07;;;;;;;5.47;1.27;;;;;;;15.81;53.40;100262.78;1653117;84;21111;-79
2021/05/31 10:10:38;;;;;;;1.92;1.10;;;;;;;15.94;54.64;100269.08;1664818;84;21116;-85
2021/05/31 10:13:07;;;;;;;1.67;1.20;;;;;;;15.96;57.17;100263.21;1643967;83;21088;-77
2021/05/31 10:15:39;;;;;;;7.42;1.67;;;;;;;16.03;54.41;100269.88;1616479;86;22309;-76
2021/05/31 10:18:05;;;;;;;2.52;1.20;;;;;;;16.17;53.92;100266.91;1614373;87;21052;-74
2021/05/31 10:20:32;;;;;;;9.43;1.20;;;;;;;16.23;54.54;100259.92;1610515;88;21065;-81
2021/05/31 10:22:59;;;;;;;2.77;0.90;;;;;;;16.24;51.86;100266.93;1602767;88;21064;-78
2021/05/31 10:25:27;;;;;;;1.07;0.93;;;;;;;16.18;52.64;100268.16;1616797;88;21351;-75
2021/05/31 10:28:08;;;;;;;1.98;0.95;;;;;;;16.02;51.69;100268.66;1663279;80;21497;-81
2021/05/31 10:30:42;;;;;;;1.75;1.00;;;;;;;15.85;51.66;100266.95;1721169;82;21190;-78
2021/05/31 10:33:15;;;;;;;1.15;1.00;;;;;;;15.62;53.80;100275.73;1736628;82;21063;-74
2021/05/31 10:35:43;;;;;;;7.70;2.37;;;;;;;15.33;53.31;100273.81;1729359;80;21116;-80
2021/05/31 10:38:19;;;;;;;3.47;0.90;;;;;;;15.14;53.68;100277.46;1725037;81;21612;-77
2021/05/31 10:40:52;;;;;;;3.47;1.10;;;;;;;15.05;54.41;100275.30;1720494;81;21114;-79
2021/05/31 10:43:22;;;;;;;5.58;1.40;;;;;;;15.00;53.59;100272.89;1712552;80;21645;-76
2021/05/31 10:46:03;;;;;;;5.15;1.12;;;;;;;14.99;56.21;100276.47;1727052;82;21068;-74
2021/05/31 10:48:31;;;;;;;3.35;0.90;;;;;;;15.12;56.32;100276.69;1703078;82;21124;-75
2021/05/31 10:51:03;;;;;;;2.60;0.90;;;;;;;15.15;53.74;100272.53;1686015;84;21710;-78
2021/05/31 10:53:33;;;;;;;1.22;0.80;;;;;;;15.08;54.78;100269.83;1700527;83;21148;-78
2021/05/31 10:56:09;;;;;;;1.98;0.90;;;;;;;15.00;54.25;100279.97;1645360;86;21631;-78
2021/05/31 10:58:49;;;;;;;6.15;1.90;;;;;;;14.92;53.68;100273.75;1682482;81;21065;-79
2021/05/31 11:01:20;;;;;;;8.20;1.72;;;;;;;14.88;55.01;100274.41;1707366;83;21096;-81
2021/05/31 11:04:06;;;;;;;1.52;1.15;;;;;;;14.94;54.71;100268.38;1717064;83;21136;-81
2021/05/31 11:06:43;;;;;;;4.75;1.00;;;;;;;15.07;55.02;100273.42;1716735;81;21101;-80
2021/05/31 11:09:20;;;;;;;2.20;1.25;;;;;;;15.19;58.21;100267.45;1706813;83;21648;-81
2021/05/31 11:11:52;;;;;;;2.45;1.30;;;;;;;15.24;54.29;100268.05;1698648;81;21179;31
2021/05/31 11:14:40;;;;;;;3.37;1.32;;;;;;;15.30;55.85;100265.08;1685792;84;21151;-76
2021/05/31 11:17:13;;;;;;;4.28;1.42;;;;;;;15.43;55.79;100267.05;1637474;87;21134;-76
2021/05/31 11:19:43;;;;;;;2.95;1.22;;;;;;;15.61;53.97;100265.19;1682817;84;21095;-74
2021/05/31 11:22:23;;;;;;;2.35;1.02;;;;;;;15.65;52.04;100268.91;1641029;85;21170;-74
2021/05/31 11:24:55;;;;;;;3.90;1.37;;;;;;;15.67;52.82;100267.02;1637529;85;21186;-77
2021/05/31 11:27:34;;;;;;;1.82;1.20;;;;;;;15.76;51.06;100259.05;1702055;77;21422;-81
2021/05/31 11:30:06;;;;;;;2.50;1.10;;;;;;;15.90;51.37;100259.59;1804716;77;21561;-81
2021/05/31 11:32:34;;;;;;;2.70;1.10;;;;;;;15.94;51.90;100258.45;1806222;77;21094;-80
2021/05/31 11:35:08;;;;;;;4.05;1.17;;;;;;;15.99;51.35;100251.11;1808071;77;21048;-80
2021/05/31 11:37:36;;;;;;;3.35;1.27;;;;;;;16.05;53.66;100250.73;1815846;77;21107;-78
2021/05/31 11:40:05;;;;;;;5.62;1.35;;;;;;;16.11;51.99;100259.69;1811407;77;21062;-79
2021/05/31 11:42:33;;;;;;;6.45;1.25;;;;;;;16.12;52.31;100249.91;1794310;77;21152;-77
2021/05/31 11:45:00;;;;;;;6.10;1.30;;;;;;;16.14;55.91;100258.16;1723849;81;21096;-77
2021/05/31 11:47:29;;;;;;;8.15;1.10;;;;;;;16.15;51.81;100255.91;1731054;81;21119;-78
2021/05/31 11:49:57;;;;;;;3.30;1.22;;;;;;;16.10;50.48;100251.34;1737065;81;22244;-76
2021/05/31 11:52:25;;;;;;;5.67;1.50;;;;;;;16.09;53.72;100250.94;1731311;81;21131;-76
2021/05/31 11:54:52;;;;;;;5.92;1.70;;;;;;;16.13;50.70;100255.14;1749136;81;21089;-75
2021/05/31 11:57:25;;;;;;;8.78;1.57;;;;;;;16.13;53.19;100249.83;1729066;80;22436;-76
2021/05/31 11:59:55;;;;;;;9.00;1.65;;;;;;;16.21;50.53;100248.52;1712725;82;21019;-78
2021/05/31 12:02:26;;;;;;;5.53;1.10;;;;;;;16.31;50.41;100252.33;1715091;83;21108;-80